Maysville, Arkansas
Current Conditions -  °F | °C
As of 3:55 PM on Thursday 23 Oct 2014 (Local Time) from KSLG Reporting Station
Overcast Overcast  
Wind Chill: 59°   Ceiling: 4900
Heat Index: 59°   Visibility: 10mi
Dew Point: 52°   Wind: 6mph
Humidity: 77%   Direction: 140°SE
Pressure: 30.13"   Gusts: NA
Location:  36.4°N, 94.6°W
Report Text: KSLG 232055Z AUTO 14005KT 10SM BKN049 BKN060 OVC080 15/11 A3013 RMK AO1 60005 57027
Loading
Personal Weather Stations






























Interactive Weather Map
Tropical Storm Tracking
New forecast layout! Learn more

10-Day Weather Forecast

Advertisements
Track Severe Weather on mobile